Time;durP1;ratioP1;P1;durP2;ratioP2;P2;SDS_P1;SDS_P2;PMS_P1;PMS_P2;Temp;Humidity;BMP_temperature;BMP_pressure;BME280_temperature;BME280_humidity;BME280_pressure;Samples;Min_cycle;Max_cycle;Signal;HPM_P1;HPM_P2
2022/02/14 00:02:12;;;;;;;11.93;8.67;;;;;;;12.09;80.52;100650.53;5021480;28;20077;-75
2022/02/14 00:04:38;;;;;;;18.60;8.90;;;;;;;12.07;80.16;100655.59;5027598;28;20573;-74
2022/02/14 00:07:05;;;;;;;9.77;8.67;;;;;;;12.05;80.24;100660.63;5013259;28;20128;-75
2022/02/14 00:09:32;;;;;;;14.17;8.83;;;;;;;11.98;79.98;100646.13;5020578;28;20077;-86
2022/02/14 00:12:02;;;;;;;8.57;6.82;;;;;;;11.95;79.86;100648.66;5019076;28;20052;-89
2022/02/14 00:14:29;;;;;;;9.17;7.40;;;;;;;12.09;79.95;100667.31;5023882;28;20076;-91
2022/02/14 00:16:56;;;;;;;12.67;6.90;;;;;;;12.12;79.93;100665.91;5025408;28;20077;-91
2022/02/14 00:19:23;;;;;;;17.40;8.33;;;;;;;12.09;80.07;100670.13;5025519;28;20131;-92
2022/02/14 00:21:50;;;;;;;10.83;8.50;;;;;;;12.11;79.80;100669.03;5031048;28;20133;-91
2022/02/14 00:24:17;;;;;;;20.17;7.53;;;;;;;11.89;79.94;100638.59;5016971;28;20133;-89
2022/02/14 00:26:45;;;;;;;16.20;7.50;;;;;;;12.05;79.97;100668.19;5023246;28;20505;-81
2022/02/14 00:29:13;;;;;;;12.30;8.43;;;;;;;12.06;79.94;100678.25;5035595;28;20073;-80
2022/02/14 00:31:40;;;;;;;9.60;7.47;;;;;;;12.04;80.04;100672.13;5051258;28;20033;-80
2022/02/14 00:34:07;;;;;;;18.67;8.27;;;;;;;12.04;79.90;100681.38;5041459;28;20030;-89
2022/02/14 00:36:35;;;;;;;14.97;7.90;;;;;;;12.05;79.91;100671.84;5042680;28;20032;-91
2022/02/14 00:39:03;;;;;;;12.80;6.97;;;;;;;12.09;80.04;100672.94;5042596;28;20382;-89
2022/02/14 00:41:30;;;;;;;12.73;7.17;;;;;;;12.14;79.71;100674.88;5023540;28;20069;-77
2022/02/14 00:43:57;;;;;;;13.83;7.57;;;;;;;12.00;79.85;100663.47;5024341;28;20147;-78
2022/02/14 00:46:23;;;;;;;11.37;9.33;;;;;;;12.09;79.74;100684.13;5026395;28;20056;-75
2022/02/14 00:48:50;;;;;;;10.83;6.40;;;;;;;12.07;79.95;100685.56;5023142;28;20105;-75
2022/02/14 00:51:17;;;;;;;9.13;6.70;;;;;;;12.05;79.85;100685.81;5024153;28;20148;-75
2022/02/14 00:53:44;;;;;;;8.17;6.40;;;;;;;11.97;80.07;100663.22;5028013;28;20088;-88
2022/02/14 00:56:12;;;;;;;12.70;5.77;;;;;;;12.01;80.23;100667.94;5046495;28;20056;-89
2022/02/14 00:58:39;;;;;;;9.07;6.97;;;;;;;11.92;80.23;100650.06;5035267;28;20101;-82
2022/02/14 01:01:06;;;;;;;8.60;6.37;;;;;;;12.13;80.17;100677.94;5042154;28;20053;-86
2022/02/14 01:03:33;;;;;;;6.70;6.10;;;;;;;12.20;80.19;100684.91;5033090;28;20521;-75
2022/02/14 01:06:00;;;;;;;10.50;6.00;;;;;;;12.07;80.32;100664.00;5026189;28;20191;-81
2022/02/14 01:08:27;;;;;;;10.93;5.83;;;;;;;12.22;80.21;100677.06;5015123;28;20104;-81
2022/02/14 01:10:53;;;;;;;12.90;7.53;;;;;;;12.25;80.23;100684.06;5018733;28;20128;-76
2022/02/14 01:13:20;;;;;;;7.87;6.23;;;;;;;12.27;80.27;100681.78;5023650;28;20132;-75
2022/02/14 01:15:47;;;;;;;6.73;6.10;;;;;;;12.36;80.15;100682.88;5023266;28;20077;-75
2022/02/14 01:18:14;;;;;;;9.67;5.80;;;;;;;12.41;80.09;100688.44;5022159;28;20041;-73
2022/02/14 01:20:42;;;;;;;7.37;6.40;;;;;;;12.39;80.22;100687.06;5023246;28;20097;-73
2022/02/14 01:23:08;;;;;;;7.40;6.77;;;;;;;12.43;80.15;100693.75;5025928;28;20111;-73
2022/02/14 01:25:35;;;;;;;7.23;6.17;;;;;;;12.20;80.09;100650.47;5024564;28;20092;-73
2022/02/14 01:28:02;;;;;;;14.27;5.97;;;;;;;12.26;79.86;100644.56;5020263;28;20046;-76
2022/02/14 01:30:29;;;;;;;8.43;6.10;;;;;;;12.53;79.81;100686.09;5024083;28;20451;-74
2022/02/14 01:32:58;;;;;;;7.63;6.20;;;;;;;12.39;79.52;100668.28;5027360;28;20551;-75
2022/02/14 01:35:26;;;;;;;7.70;5.50;;;;;;;12.44;79.32;100684.19;5026302;28;20775;-74
2022/02/14 01:37:53;;;;;;;6.37;5.83;;;;;;;12.36;79.44;100682.03;5020037;28;20465;-75
2022/02/14 01:40:21;;;;;;;8.13;6.50;;;;;;;12.38;79.49;100686.22;5026152;28;20080;-74
2022/02/14 01:42:48;;;;;;;15.80;7.60;;;;;;;12.27;79.37;100684.59;5020727;28;20468;-75
2022/02/14 01:45:14;;;;;;;8.13;6.13;;;;;;;12.27;79.24;100684.59;5028069;28;20431;-76
2022/02/14 01:47:42;;;;;;;15.23;6.80;;;;;;;12.13;79.00;100677.94;5019786;28;20140;-77
2022/02/14 01:50:12;;;;;;;10.03;6.43;;;;;;;12.10;78.94;100684.94;5016881;28;20046;-83
2022/02/14 01:52:40;;;;;;;;;;;;;;;12.09;80.26;100700.91;5025357;28;20084;-77
2022/02/14 01:55:12;;;;;;;10.47;6.23;;;;;;;12.07;78.86;100691.16;5048572;28;20098;-76
2022/02/14 01:57:39;;;;;;;9.40;6.60;;;;;;;12.05;78.84;100691.44;5027868;28;20049;-78
2022/02/14 02:00:11;;;;;;;11.57;6.77;;;;;;;11.59;78.48;100612.44;5018964;28;20140;-77
2022/02/14 02:02:38;;;;;;;9.37;6.60;;;;;;;12.09;78.54;100683.28;5018924;28;20472;-79
2022/02/14 02:05:05;;;;;;;10.70;6.87;;;;;;;12.05;78.58;100683.03;5019369;28;20635;-81
2022/02/14 02:07:32;;;;;;;8.97;8.07;;;;;;;12.02;78.69;100682.75;5018043;28;20126;-81
2022/02/14 02:10:04;;;;;;;9.53;6.73;;;;;;;11.71;78.68;100637.25;5021812;28;20049;-76
2022/02/14 02:12:32;;;;;;;7.07;6.47;;;;;;;11.95;78.86;100694.25;5018000;28;20515;-79
2022/02/14 02:15:02;;;;;;;9.60;8.30;;;;;;;11.85;78.57;100685.91;5019404;28;20132;-80
2022/02/14 02:17:31;;;;;;;13.07;8.40;;;;;;;11.78;78.33;100693.75;5026654;28;20059;-73
2022/02/14 02:19:58;;;;;;;12.27;9.30;;;;;;;11.74;78.54;100704.66;5026597;28;20089;-76
2022/02/14 02:22:25;;;;;;;8.63;7.53;;;;;;;11.59;78.71;100697.19;5026044;28;20049;-74
2022/02/14 02:24:55;;;;;;;12.03;7.73;;;;;;;11.65;78.88;100706.38;5023761;28;20448;-74
2022/02/14 02:27:25;;;;;;;13.45;7.88;;;;;;;11.68;78.64;100711.41;5020971;28;20046;-74
2022/02/14 02:29:57;;;;;;;9.77;7.70;;;;;;;11.61;78.47;100688.47;5018366;28;20135;-73
2022/02/14 02:32:26;;;;;;;12.40;11.30;;;;;;;11.75;78.15;100708.31;5020154;28;20129;-76
2022/02/14 02:34:53;;;;;;;11.03;8.30;;;;;;;11.62;77.88;100688.22;5014952;28;20085;-72
2022/02/14 02:37:21;;;;;;;9.37;7.93;;;;;;;11.79;77.72;100712.19;5016600;28;20137;-71
2022/02/14 02:39:48;;;;;;;11.40;8.33;;;;;;;11.68;77.98;100713.38;5028879;28;20054;-71
2022/02/14 02:42:19;;;;;;;10.33;8.27;;;;;;;11.68;77.69;100705.81;5020998;28;20487;-72
2022/02/14 02:44:47;;;;;;;14.43;8.33;;;;;;;11.66;77.54;100712.78;5022280;28;20111;-72
2022/02/14 02:47:17;;;;;;;8.23;7.30;;;;;;;11.69;77.31;100712.22;5021703;28;20136;-72
2022/02/14 02:49:45;;;;;;;12.27;8.57;;;;;;;11.67;77.10;100720.09;5023704;28;20072;-75
2022/02/14 02:52:15;;;;;;;15.87;8.20;;;;;;;11.62;76.99;100716.19;5023546;28;20073;-73
2022/02/14 02:54:43;;;;;;;12.32;8.23;;;;;;;11.59;77.17;100721.50;5027688;28;20054;-75
2022/02/14 02:57:11;;;;;;;11.90;7.97;;;;;;;11.39;77.29;100686.88;5022589;28;20149;-74
2022/02/14 02:59:41;;;;;;;13.60;8.07;;;;;;;11.55;77.17;100712.81;5023011;28;20052;-74
2022/02/14 03:02:08;;;;;;;10.33;7.83;;;;;;;11.54;77.27;100722.34;5020120;28;20065;-74
2022/02/14 03:04:36;;;;;;;10.47;7.40;;;;;;;11.51;77.34;100719.28;5022993;28;20079;-73
2022/02/14 03:07:03;;;;;;;13.63;12.37;;;;;;;11.27;77.40;100691.06;5050100;28;20053;-72
2022/02/14 03:09:30;;;;;;;10.67;7.83;;;;;;;11.38;77.46;100717.88;5041273;28;20049;-74
2022/02/14 03:11:57;;;;;;;13.07;8.60;;;;;;;11.28;77.45;100692.75;5026109;28;20135;-74
2022/02/14 03:14:24;;;;;;;12.07;9.43;;;;;;;11.27;77.25;100688.28;5029277;28;20048;-75
2022/02/14 03:16:52;;;;;;;10.93;8.87;;;;;;;11.38;77.07;100715.09;5024785;28;20481;-74
2022/02/14 03:19:19;;;;;;;14.77;8.00;;;;;;;11.34;77.03;100711.19;5021019;28;20042;-75
2022/02/14 03:21:49;;;;;;;9.63;8.63;;;;;;;11.28;77.19;100701.13;5025418;28;20045;-76
2022/02/14 03:24:16;;;;;;;13.87;7.80;;;;;;;11.28;77.13;100717.91;5029635;28;20054;-73
2022/02/14 03:26:43;;;;;;;13.90;7.80;;;;;;;11.06;77.40;100681.88;5022668;28;20168;-76
2022/02/14 03:29:12;;;;;;;14.50;7.93;;;;;;;11.21;77.26;100711.75;5024413;28;20081;-75
2022/02/14 03:31:39;;;;;;;10.77;7.57;;;;;;;11.17;77.20;100707.88;5024079;28;20966;-76
2022/02/14 03:34:05;;;;;;;13.63;8.17;;;;;;;11.03;77.22;100694.44;5021685;28;20132;-76
2022/02/14 03:36:32;;;;;;;7.97;7.17;;;;;;;10.84;77.37;100679.38;5029580;28;20133;-76
2022/02/14 03:38:59;;;;;;;14.07;8.13;;;;;;;11.05;77.36;100714.59;5026823;28;20136;-76
2022/02/14 03:41:26;;;;;;;23.03;9.30;;;;;;;11.03;77.20;100705.63;5024937;28;20505;-74
2022/02/14 03:43:55;;;;;;;12.80;6.53;;;;;;;10.95;77.30;100697.81;5023457;28;20084;-75
2022/02/14 03:46:22;;;;;;;7.13;6.63;;;;;;;11.02;77.25;100715.13;5021415;28;20045;-74
2022/02/14 03:48:49;;;;;;;16.80;7.20;;;;;;;10.66;77.40;100659.25;5021240;28;20133;-72
2022/02/14 03:51:16;;;;;;;10.83;6.17;;;;;;;10.97;77.55;100706.75;5024787;28;20085;-74
2022/02/14 03:53:42;;;;;;;9.37;7.47;;;;;;;10.89;77.56;100688.59;5028098;28;20049;-73
2022/02/14 03:56:09;;;;;;;10.40;7.07;;;;;;;10.85;77.64;100687.47;5028802;28;20128;-77
2022/02/14 03:58:36;;;;;;;15.67;7.03;;;;;;;11.01;77.70;100719.06;5017018;28;20568;-77
2022/02/14 04:01:03;;;;;;;8.37;7.40;;;;;;;10.99;77.79;100720.44;5019333;28;20065;-80
2022/02/14 04:03:30;;;;;;;11.40;7.53;;;;;;;10.98;77.63;100716.81;5027848;28;20049;-79
2022/02/14 04:05:57;;;;;;;14.60;7.03;;;;;;;10.98;77.74;100714.03;5019932;28;20139;-78
2022/02/14 04:08:24;;;;;;;11.17;6.60;;;;;;;10.87;77.57;100693.63;5018200;28;20082;-77
2022/02/14 04:10:53;;;;;;;16.43;7.33;;;;;;;10.98;77.60;100716.81;5023558;28;20152;-78
2022/02/14 04:13:21;;;;;;;7.83;6.43;;;;;;;10.92;77.85;100709.56;5024353;28;20069;-78
2022/02/14 04:15:48;;;;;;;9.23;6.77;;;;;;;10.94;77.69;100712.91;5018628;28;20074;-84
2022/02/14 04:18:15;;;;;;;11.53;6.77;;;;;;;10.96;77.85;100710.66;5025869;28;20604;-74
2022/02/14 04:20:42;;;;;;;7.50;6.63;;;;;;;10.88;77.87;100700.06;5020894;28;20077;-76
2022/02/14 04:23:09;;;;;;;12.20;6.10;;;;;;;10.94;77.78;100715.72;5021753;28;20484;-76
2022/02/14 04:25:36;;;;;;;11.67;6.30;;;;;;;10.90;77.83;100717.34;5021495;28;20128;-75
2022/02/14 04:28:03;;;;;;;14.57;6.50;;;;;;;11.00;77.81;100725.75;5020888;28;20402;-69
2022/02/14 04:30:31;;;;;;;15.57;7.50;;;;;;;10.88;77.67;100706.47;5020725;28;20081;-70
2022/02/14 04:33:00;;;;;;;10.60;6.97;;;;;;;11.05;77.82;100734.16;5020037;28;20120;-70
2022/02/14 04:35:31;;;;;;;8.53;6.30;;;;;;;10.91;78.08;100710.69;5035198;28;20104;-81
2022/02/14 04:37:59;;;;;;;7.97;6.00;;;;;;;11.01;77.87;100735.81;5020075;28;20085;-84
2022/02/14 04:40:28;;;;;;;7.33;5.70;;;;;;;10.97;77.90;100743.06;5019965;28;20489;-86
2022/02/14 04:42:57;;;;;;;17.10;7.23;;;;;;;10.97;77.75;100737.47;5020444;28;20129;-81
2022/02/14 04:45:25;;;;;;;15.20;6.93;;;;;;;10.85;77.84;100732.19;5017355;28;20132;-76
2022/02/14 04:47:52;;;;;;;10.57;7.33;;;;;;;10.95;77.85;100736.94;5016434;28;20082;-78
2022/02/14 04:50:20;;;;;;;17.07;7.80;;;;;;;10.95;77.44;100752.88;5019057;28;20560;-79
2022/02/14 04:52:47;;;;;;;8.23;7.33;;;;;;;10.88;77.74;100741.97;5017124;28;20108;-79
2022/02/14 04:55:13;;;;;;;13.77;7.00;;;;;;;10.87;77.70;100745.84;5017831;28;20145;-81
2022/02/14 04:57:40;;;;;;;15.83;7.20;;;;;;;10.73;77.38;100714.00;5023079;28;20072;-80
2022/02/14 05:00:12;;;;;;;13.60;6.43;;;;;;;10.81;77.49;100736.66;5021504;28;20065;-78
2022/02/14 05:02:41;;;;;;;7.37;6.40;;;;;;;10.66;77.59;100722.66;5040879;28;20030;-76
2022/02/14 05:05:08;;;;;;;10.13;6.60;;;;;;;10.81;77.55;100749.78;5051644;28;20032;-76
2022/02/14 05:07:35;;;;;;;18.07;6.80;;;;;;;10.80;77.47;100748.09;5048121;28;20033;-77
2022/02/14 05:10:06;;;;;;;10.77;6.40;;;;;;;10.78;77.64;100747.53;5039982;28;20045;-81
2022/02/14 05:12:33;;;;;;;11.70;6.20;;;;;;;10.48;77.49;100692.47;5043591;28;20026;-81
2022/02/14 05:15:00;;;;;;;7.17;5.90;;;;;;;10.82;77.66;100749.50;5051276;28;20022;-81
2022/02/14 05:17:27;;;;;;;9.97;7.33;;;;;;;10.83;77.43;100751.16;5034342;28;20081;-91
2022/02/14 05:19:55;;;;;;;9.50;6.23;;;;;;;10.86;77.68;100753.41;5039928;28;20069;-87
2022/02/14 05:22:21;;;;;;;11.57;6.70;;;;;;;10.85;78.04;100754.53;5041933;28;20042;-87
2022/02/14 05:24:48;;;;;;;11.00;6.87;;;;;;;10.94;78.34;100759.56;5042093;28;20057;-85
2022/02/14 05:27:17;;;;;;;16.87;5.83;;;;;;;10.78;78.17;100722.41;5047806;28;20034;-85
2022/02/14 05:29:44;;;;;;;13.80;7.00;;;;;;;11.00;78.54;100766.84;5047802;28;20046;-85
2022/02/14 05:32:11;;;;;;;12.30;8.93;;;;;;;11.01;78.61;100768.50;5044230;28;20056;-81
2022/02/14 05:34:39;;;;;;;11.03;6.60;;;;;;;10.99;78.68;100766.00;5043493;28;20056;-81
2022/02/14 05:37:06;;;;;;;17.03;6.57;;;;;;;10.99;78.60;100768.78;5028818;28;20041;-84
2022/02/14 05:39:34;;;;;;;12.13;6.10;;;;;;;10.90;78.54;100746.13;5031717;28;20045;-81
2022/02/14 05:42:02;;;;;;;8.23;6.73;;;;;;;10.93;78.57;100755.94;5050592;28;20021;-89
2022/02/14 05:44:28;;;;;;;17.50;6.60;;;;;;;11.02;78.83;100779.41;5040309;28;20109;-79
2022/02/14 05:46:55;;;;;;;16.53;8.87;;;;;;;11.01;79.16;100790.84;5042600;28;20045;-83
2022/02/14 05:49:22;;;;;;;7.87;6.83;;;;;;;10.98;78.81;100783.88;5040847;28;20101;-78
2022/02/14 05:51:49;;;;;;;10.83;6.37;;;;;;;10.88;78.69;100767.13;5032598;28;20128;-75
2022/02/14 05:54:16;;;;;;;8.33;6.53;;;;;;;10.96;78.59;100800.09;5032528;28;20057;-75
2022/02/14 05:56:43;;;;;;;14.90;7.20;;;;;;;10.72;78.71;100774.63;5031821;28;20140;-75
2022/02/14 05:59:10;;;;;;;10.33;7.00;;;;;;;10.83;78.29;100804.25;5021836;28;20052;-76
2022/02/14 06:01:36;;;;;;;9.63;6.73;;;;;;;10.80;78.05;100817.91;5021998;28;20070;-76
2022/02/14 06:04:08;;;;;;;8.83;6.20;;;;;;;10.80;77.94;100812.34;5026299;28;20056;-75
2022/02/14 06:06:35;;;;;;;12.17;6.33;;;;;;;10.81;77.61;100808.44;5023958;28;20100;-75
2022/02/14 06:09:03;;;;;;;9.50;6.57;;;;;;;10.76;77.64;100812.03;5023557;28;20045;-75
2022/02/14 06:11:30;;;;;;;15.60;7.00;;;;;;;10.48;77.77;100777.06;5035062;28;20069;-72
2022/02/14 06:13:57;;;;;;;15.03;6.43;;;;;;;10.60;77.75;100799.19;5048058;28;20057;-77
2022/02/14 06:16:24;;;;;;;8.17;5.70;;;;;;;10.75;77.81;100826.31;5054940;28;20042;-75
2022/02/14 06:18:51;;;;;;;12.60;7.67;;;;;;;10.71;77.98;100819.59;5054508;28;20021;-76
2022/02/14 06:21:17;;;;;;;11.67;7.50;;;;;;;10.71;78.17;100816.81;5045395;28;20034;-76
2022/02/14 06:23:44;;;;;;;10.93;6.07;;;;;;;10.64;78.62;100809.50;5053753;28;20080;-73
2022/02/14 06:26:12;;;;;;;7.60;6.83;;;;;;;10.74;78.45;100819.06;5050487;28;20037;-73
2022/02/14 06:28:40;;;;;;;16.70;7.57;;;;;;;10.75;78.26;100826.31;5054071;28;20045;-75
2022/02/14 06:31:09;;;;;;;10.93;6.53;;;;;;;10.56;78.25;100798.84;5042673;28;20543;-74
2022/02/14 06:33:41;;;;;;;9.60;7.53;;;;;;;10.71;77.98;100839.16;5038469;28;20037;-74
2022/02/14 06:36:09;;;;;;;14.30;8.10;;;;;;;10.66;78.14;100829.63;5053184;28;20032;-76
2022/02/14 06:38:36;;;;;;;11.13;8.37;;;;;;;10.68;78.08;100837.75;5051761;28;20041;-77
2022/02/14 06:41:03;;;;;;;11.90;8.50;;;;;;;10.58;77.89;100821.78;5042318;28;20046;-77
2022/02/14 06:43:30;;;;;;;9.30;8.43;;;;;;;10.50;77.83;100808.34;5050324;28;20029;-74
2022/02/14 06:45:57;;;;;;;11.87;7.33;;;;;;;10.52;77.73;100828.44;5052994;28;20037;-73
2022/02/14 06:48:24;;;;;;;15.07;7.90;;;;;;;10.55;77.73;100833.50;5047432;28;20057;-74
2022/02/14 06:50:51;;;;;;;9.10;7.83;;;;;;;10.52;77.60;100838.78;5036458;28;20100;-73
2022/02/14 06:53:18;;;;;;;15.77;9.53;;;;;;;10.50;77.50;100853.03;5050153;28;20041;-82
2022/02/14 06:55:45;;;;;;;10.37;9.57;;;;;;;10.42;77.51;100842.38;5027736;28;20053;-80
2022/02/14 06:58:11;;;;;;;11.57;9.93;;;;;;;10.39;77.45;100849.38;5041094;28;20052;-84
2022/02/14 07:00:39;;;;;;;12.07;8.30;;;;;;;10.09;77.10;100808.16;5043293;28;20084;-73
2022/02/14 07:03:06;;;;;;;11.77;10.73;;;;;;;10.25;77.38;100836.97;5033454;28;20050;-72
2022/02/14 07:05:33;;;;;;;9.37;7.47;;;;;;;10.30;77.48;100858.53;5032167;28;20398;-71
2022/02/14 07:08:01;;;;;;;10.73;7.27;;;;;;;10.12;77.73;100846.69;5044675;28;20080;-77
2022/02/14 07:10:29;;;;;;;17.97;7.90;;;;;;;10.15;77.82;100860.09;5046492;28;20044;-75
2022/02/14 07:12:56;;;;;;;10.63;8.07;;;;;;;10.09;78.05;100852.81;5043385;28;20437;-70
2022/02/14 07:15:23;;;;;;;10.07;8.20;;;;;;;10.05;78.29;100857.25;5045072;28;20045;-72
2022/02/14 07:17:51;;;;;;;10.33;7.20;;;;;;;9.85;78.27;100835.63;5040264;28;20050;-71
2022/02/14 07:20:19;;;;;;;11.53;7.13;;;;;;;9.94;78.52;100856.31;5048311;28;20131;-71
2022/02/14 07:22:46;;;;;;;15.00;8.43;;;;;;;9.88;78.52;100863.00;5041767;28;20092;-71
2022/02/14 07:25:14;;;;;;;8.17;7.47;;;;;;;9.96;78.73;100876.44;5046417;28;20061;-72
2022/02/14 07:27:44;;;;;;;14.52;8.93;;;;;;;10.10;79.01;100885.16;5043099;28;20488;-71
2022/02/14 07:30:12;;;;;;;11.93;7.60;;;;;;;9.85;78.82;100841.22;5022597;28;20128;-72
2022/02/14 07:32:41;;;;;;;10.73;7.53;;;;;;;10.26;79.03;100896.47;5035440;28;20097;-73
2022/02/14 07:35:08;;;;;;;9.80;8.93;;;;;;;10.14;78.80;100889.09;5022143;28;20137;-72
2022/02/14 07:37:35;;;;;;;10.47;8.43;;;;;;;10.14;78.87;100891.88;5022517;28;20045;-73
2022/02/14 07:40:03;;;;;;;13.97;11.87;;;;;;;10.17;78.86;100891.34;5024105;28;20111;-71
2022/02/14 07:42:31;;;;;;;11.60;9.23;;;;;;;10.21;78.89;100906.44;5022521;28;20049;-73
2022/02/14 07:44:59;;;;;;;17.20;9.93;;;;;;;10.25;78.91;100900.31;5022791;28;20077;-72
2022/02/14 07:47:26;;;;;;;10.97;9.90;;;;;;;10.28;78.92;100900.66;5032959;28;20049;-73
2022/02/14 07:49:53;;;;;;;11.23;10.20;;;;;;;10.28;78.99;100894.22;5026211;28;20144;-74
2022/02/14 07:52:21;;;;;;;11.33;10.20;;;;;;;10.31;79.01;100899.28;5026464;28;20479;-74
2022/02/14 07:54:48;;;;;;;11.90;10.80;;;;;;;10.23;79.12;100891.41;5039105;28;20052;-74
2022/02/14 07:57:15;;;;;;;10.17;9.33;;;;;;;10.39;78.93;100912.72;5028861;28;20404;-73
2022/02/14 07:59:44;;;;;;;9.83;8.70;;;;;;;10.46;78.81;100916.13;5019735;28;20431;-74
2022/02/14 08:02:11;;;;;;;12.77;9.90;;;;;;;10.40;78.77;100904.09;5018832;28;20053;-73
2022/02/14 08:04:41;;;;;;;10.10;9.20;;;;;;;10.55;78.64;100922.03;5014296;28;21212;-72
2022/02/14 08:07:08;;;;;;;20.87;13.43;;;;;;;10.55;78.45;100914.47;5011752;28;20056;-72
2022/02/14 08:09:34;;;;;;;15.20;9.73;;;;;;;10.60;78.59;100922.91;5014829;28;20124;-74
2022/02/14 08:12:04;;;;;;;13.90;8.90;;;;;;;10.69;78.41;100928.78;5025220;28;20053;-71
2022/02/14 08:14:31;;;;;;;10.32;9.15;;;;;;;10.96;78.71;100925.81;5034075;28;20076;-74
2022/02/14 08:16:58;;;;;;;12.20;9.07;;;;;;;11.23;78.74;100917.25;5027634;28;20128;-72
2022/02/14 08:19:24;;;;;;;10.20;9.17;;;;;;;11.45;79.24;100919.78;5047661;28;20029;-74
2022/02/14 08:21:51;;;;;;;12.77;9.07;;;;;;;11.83;79.21;100943.63;5028078;28;20095;-73
2022/02/14 08:24:18;;;;;;;20.17;12.17;;;;;;;12.19;79.58;100942.78;5031690;28;20080;-72
2022/02/14 08:26:45;;;;;;;17.63;12.17;;;;;;;12.50;79.50;100941.59;5028945;28;20951;-73
2022/02/14 08:29:12;;;;;;;12.60;10.17;;;;;;;12.99;79.38;100960.50;5030956;28;20046;-73
2022/02/14 08:31:39;;;;;;;16.30;10.83;;;;;;;13.09;79.53;100965.19;5019855;28;20698;-73
2022/02/14 08:34:06;;;;;;;16.57;10.70;;;;;;;12.84;80.03;100948.50;5017470;28;20231;-72
2022/02/14 08:36:33;;;;;;;9.93;8.63;;;;;;;12.68;80.35;100962.56;5020447;28;20077;-75
2022/02/14 08:39:01;;;;;;;15.47;10.40;;;;;;;12.31;80.13;100934.94;5021018;28;20187;-74
2022/02/14 08:41:28;;;;;;;20.00;14.90;;;;;;;12.32;79.50;100987.00;5018646;28;20224;-72
2022/02/14 08:43:55;;;;;;;17.63;13.63;;;;;;;11.97;78.58;100977.50;5022594;28;20877;-72
2022/02/14 08:46:22;;;;;;;15.87;12.83;;;;;;;11.75;78.50;100979.69;5024621;28;20042;-72
2022/02/14 08:48:50;;;;;;;14.40;11.50;;;;;;;11.60;78.84;100980.53;5027104;28;20084;-72
2022/02/14 08:51:20;;;;;;;13.67;11.97;;;;;;;11.60;79.04;100956.19;5023090;28;20124;-70
2022/02/14 08:53:48;;;;;;;16.63;11.30;;;;;;;12.25;79.77;100997.66;5025066;28;20075;-72
2022/02/14 08:56:15;;;;;;;10.67;9.33;;;;;;;12.53;79.63;100985.84;5026991;28;20049;-73
2022/02/14 08:58:42;;;;;;;12.53;10.13;;;;;;;13.04;79.80;100994.13;5027602;28;20152;-73
2022/02/14 09:01:13;;;;;;;11.23;9.60;;;;;;;13.42;79.47;100991.72;5015705;28;20140;-73
2022/02/14 09:03:40;;;;;;;10.37;9.20;;;;;;;13.91;79.41;101004.91;5018845;28;20140;-72
2022/02/14 09:06:07;;;;;;;9.60;8.82;;;;;;;14.38;78.89;100996.91;5017894;28;20045;-72
2022/02/14 09:08:34;;;;;;;10.20;9.30;;;;;;;14.82;78.87;101012.78;5021216;28;20136;-73
2022/02/14 09:11:01;;;;;;;12.13;9.88;;;;;;;15.22;78.22;101010.66;5017963;28;20045;-72
2022/02/14 09:13:31;;;;;;;12.10;10.88;;;;;;;15.62;77.81;101018.56;5018345;28;20061;-72
2022/02/14 09:15:59;;;;;;;9.63;8.68;;;;;;;16.05;77.23;101018.47;5020369;28;20143;-72
2022/02/14 09:18:26;;;;;;;11.98;8.65;;;;;;;16.41;76.83;101023.53;5026614;28;20049;-72
2022/02/14 09:20:57;;;;;;;10.00;8.95;;;;;;;16.75;76.35;101023.25;5022653;28;20053;-74
2022/02/14 09:23:24;;;;;;;10.07;8.55;;;;;;;17.07;75.53;101026.31;5027793;28;20069;-72
2022/02/14 09:25:51;;;;;;;9.48;8.15;;;;;;;17.40;74.88;101022.22;5029340;28;20112;-72
2022/02/14 09:28:18;;;;;;;10.18;9.30;;;;;;;17.44;74.83;101028.91;5027932;28;20208;-72
2022/02/14 09:30:45;;;;;;;12.43;8.25;;;;;;;17.58;74.58;101026.06;5027996;28;20084;-73
2022/02/14 09:33:12;;;;;;;8.02;7.35;;;;;;;17.82;74.35;101030.66;5027371;28;20132;-73
2022/02/14 09:35:39;;;;;;;11.48;7.95;;;;;;;18.15;73.99;101034.94;5033597;28;20475;-73
2022/02/14 09:38:06;;;;;;;9.82;8.95;;;;;;;18.39;73.61;101045.06;5031762;28;20474;-73
2022/02/14 09:40:35;;;;;;;9.80;8.88;;;;;;;18.61;72.87;101041.41;5027431;28;20045;-73
2022/02/14 09:43:13;;;;;;;9.68;8.77;;;;;;;18.65;73.37;101040.44;5024617;28;20058;-76
2022/02/14 09:45:41;;;;;;;9.85;8.68;;;;;;;18.76;73.07;101024.03;5019825;28;20103;-72
2022/02/14 09:48:10;;;;;;;8.23;7.43;;;;;;;19.15;72.27;101034.56;5024040;28;20145;-74
2022/02/14 09:50:39;;;;;;;9.80;8.23;;;;;;;19.18;72.41;101053.75;5021532;28;20495;-73
2022/02/14 09:53:09;;;;;;;10.63;7.60;;;;;;;18.59;73.26;101067.19;5026081;28;20156;-72
2022/02/14 09:55:44;;;;;;;8.48;7.22;;;;;;;17.81;75.31;101066.53;5024909;28;20057;-72
2022/02/14 09:58:11;;;;;;;9.60;8.95;;;;;;;17.21;76.39;101055.34;5027082;28;20072;-73
2022/02/14 10:00:38;;;;;;;9.27;7.38;;;;;;;16.81;76.86;101075.56;5026225;28;20096;-73
2022/02/14 10:03:10;;;;;;;9.55;7.88;;;;;;;16.28;77.52;101067.44;5028381;28;20128;-73
2022/02/14 10:05:41;;;;;;;10.30;8.73;;;;;;;15.73;77.73;101061.50;5026340;28;20112;-72
2022/02/14 10:08:09;;;;;;;10.93;9.27;;;;;;;15.36;78.33;101085.59;5016095;28;20068;-73
2022/02/14 10:10:37;;;;;;;17.80;9.60;;;;;;;14.86;79.02;101039.19;5034748;28;20072;-72
2022/02/14 10:13:04;;;;;;;15.98;11.57;;;;;;;15.43;79.86;101085.22;5020049;28;20080;-73
2022/02/14 10:15:34;;;;;;;10.27;8.13;;;;;;;16.06;79.48;101075.66;5022784;28;20095;-73
2022/02/14 10:18:01;;;;;;;11.18;9.77;;;;;;;16.71;78.79;101074.88;5027651;28;20045;-74
2022/02/14 10:20:31;;;;;;;9.65;8.07;;;;;;;17.57;77.29;101091.31;5024408;28;20081;-74
2022/02/14 10:23:02;;;;;;;8.05;7.40;;;;;;;18.11;76.09;101089.56;5020307;28;20084;-73
2022/02/14 10:25:32;;;;;;;7.82;7.18;;;;;;;18.70;74.41;101093.22;5022843;28;20049;-73
2022/02/14 10:28:22;;;;;;;10.32;7.50;;;;;;;19.45;74.19;101099.13;5023729;28;20149;-73
2022/02/14 10:30:59;;;;;;;8.23;7.28;;;;;;;19.84;72.97;101095.47;5029600;28;20129;-73
2022/02/14 10:33:47;;;;;;;9.13;8.38;;;;;;;20.25;72.74;101099.88;5014716;28;20060;-73
2022/02/14 10:36:32;;;;;;;10.27;7.80;;;;;;;20.52;72.24;101082.53;5021270;28;20060;-74
2022/02/14 10:39:11;;;;;;;9.15;8.38;;;;;;;20.67;71.67;101105.88;5023895;28;20136;-73
2022/02/14 10:41:40;;;;;;;9.27;7.70;;;;;;;20.27;72.42;101097.50;5028682;28;20081;-73
2022/02/14 10:45:07;;;;;;;10.63;9.35;;;;;;;20.54;71.88;101102.88;5025137;28;20045;-72
2022/02/14 10:47:15;;;;;;;15.68;8.15;;;;;;;20.60;72.25;101046.78;5022178;28;20096;-73
2022/02/14 10:49:43;;;;;;;12.23;8.35;;;;;;;21.08;69.76;101082.56;5022531;28;20205;-73
2022/02/14 10:52:13;;;;;;;9.88;7.30;;;;;;;21.50;69.69;101095.00;5033671;28;20057;-72
2022/02/14 10:54:43;;;;;;;9.60;8.00;;;;;;;21.78;70.00;101111.56;5043727;28;20057;-71
2022/02/14 10:57:33;;;;;;;11.73;8.55;;;;;;;22.03;70.84;101112.56;5026060;28;20073;-73
2022/02/14 11:00:13;;;;;;;10.02;8.45;;;;;;;22.34;69.59;101112.22;5023943;28;20594;-73
2022/02/14 11:02:43;;;;;;;12.15;8.00;;;;;;;22.51;68.76;101122.63;5021635;28;20072;-72
2022/02/14 11:05:16;;;;;;;11.95;11.05;;;;;;;22.55;69.11;101117.88;5025355;28;20049;-72
2022/02/14 11:07:44;;;;;;;12.02;10.80;;;;;;;22.66;69.20;101121.97;5055452;28;20081;-72
2022/02/14 11:10:16;;;;;;;10.02;8.98;;;;;;;22.98;68.53;101124.41;5023584;28;20046;-72
2022/02/14 11:13:03;;;;;;;11.00;8.00;;;;;;;22.86;70.91;101123.13;5025074;28;20049;-73
2022/02/14 11:15:32;;;;;;;10.00;7.97;;;;;;;23.06;68.16;101120.63;5023891;28;20137;-73
2022/02/14 11:18:06;;;;;;;16.52;8.80;;;;;;;23.40;67.82;101120.22;5021270;28;20045;-73
2022/02/14 11:20:37;;;;;;;31.85;12.48;;;;;;;23.40;67.67;101125.09;5022056;28;20049;-73
2022/02/14 11:23:06;;;;;;;13.35;8.65;;;;;;;23.20;66.81;101097.50;5029122;28;20084;-73
2022/02/14 11:25:39;;;;;;;9.23;8.38;;;;;;;23.30;68.00;101131.25;5019436;28;20073;-73